createdAt,value
2024-01-05T00:01:21.736Z,3.29
2024-01-05T00:11:24.950Z,3.27
2024-01-05T00:21:29.812Z,3.39
2024-01-05T00:31:32.898Z,3.34
2024-01-05T00:41:37.094Z,3.42
2024-01-05T00:51:39.916Z,3.43
2024-01-05T01:01:44.121Z,3.44
2024-01-05T01:11:46.858Z,3.44
2024-01-05T01:21:51.022Z,3.44
2024-01-05T01:31:53.795Z,3.25
2024-01-05T01:41:57.907Z,3.24
2024-01-05T01:52:00.997Z,3.30
2024-01-05T02:02:05.913Z,3.23
2024-01-05T02:12:09.456Z,3.10
2024-01-05T02:22:13.596Z,3.18
2024-01-05T02:32:18.578Z,3.30
2024-01-05T02:42:21.412Z,3.16
2024-01-05T02:52:25.496Z,3.16
2024-01-05T03:02:28.228Z,3.21
2024-01-05T03:12:32.410Z,3.16
2024-01-05T03:22:35.170Z,3.15
2024-01-05T03:32:39.454Z,3.09
2024-01-05T03:42:42.326Z,3.04
2024-01-05T03:52:46.412Z,3.04
2024-01-05T04:02:49.208Z,2.98
2024-01-05T04:12:53.356Z,2.98
2024-01-05T04:22:56.622Z,2.98
2024-01-05T04:33:00.918Z,3.03
2024-01-05T04:43:03.796Z,2.99
2024-01-05T04:53:07.894Z,3.10
2024-01-05T05:03:11.127Z,3.06
2024-01-05T05:13:15.333Z,3.09
2024-01-05T05:23:18.095Z,2.97
2024-01-05T05:33:22.249Z,3.19
2024-01-05T05:43:25.172Z,3.13
2024-01-05T05:53:29.274Z,3.17
2024-01-05T06:03:32.081Z,3.28
2024-01-05T06:13:38.199Z,3.28
2024-01-05T06:23:41.059Z,3.26
2024-01-05T06:33:45.300Z,3.36
2024-01-05T06:43:48.143Z,3.31
2024-01-05T06:53:52.394Z,3.50
2024-01-05T07:03:55.315Z,3.50
2024-01-05T07:13:59.428Z,3.59
2024-01-05T07:24:03.433Z,3.62
2024-01-05T07:34:08.399Z,3.64
2024-01-05T07:44:11.167Z,3.72
2024-01-05T07:54:15.320Z,3.86
2024-01-05T08:04:18.195Z,3.68
2024-01-05T08:14:22.366Z,3.72
2024-01-05T08:24:26.851Z,3.87
2024-01-05T08:34:31.368Z,3.97
2024-01-05T08:44:34.476Z,4.04
2024-01-05T08:54:40.487Z,4.29
2024-01-05T09:04:43.278Z,4.22
2024-01-05T09:14:47.372Z,4.36
2024-01-05T09:24:50.088Z,4.44
2024-01-05T09:34:54.232Z,4.53
2024-01-05T09:44:57.428Z,4.45
2024-01-05T09:55:01.541Z,4.41
2024-01-05T10:05:04.351Z,4.48
2024-01-05T10:15:09.902Z,4.54
2024-01-05T10:25:17.653Z,4.67
2024-01-05T10:35:26.337Z,4.72
2024-01-05T10:45:30.124Z,4.73
2024-01-05T10:55:35.139Z,4.75
2024-01-05T11:05:39.381Z,4.86
2024-01-05T11:16:16.197Z,4.91
2024-01-05T11:26:33.132Z,4.93
2024-01-05T11:36:59.260Z,4.94
2024-01-05T11:47:02.542Z,5.03
2024-01-05T11:57:06.869Z,5.02
2024-01-05T12:07:09.666Z,5.08
2024-01-05T12:17:17.295Z,5.11
2024-01-05T12:27:20.193Z,5.33
2024-01-05T12:37:25.012Z,5.38
2024-01-05T12:47:31.005Z,5.30
2024-01-05T12:57:35.461Z,5.48
2024-01-05T13:07:38.233Z,5.56
2024-01-05T13:17:47.515Z,5.60
2024-01-05T13:27:50.528Z,5.37
2024-01-05T13:37:54.666Z,5.24
2024-01-05T13:47:57.553Z,5.01
2024-01-05T13:58:01.718Z,5.06
2024-01-05T14:08:04.873Z,4.96
2024-01-05T14:18:09.190Z,4.83
2024-01-05T14:28:11.981Z,4.73
2024-01-05T14:38:16.076Z,4.76
2024-01-05T14:48:18.916Z,4.59
2024-01-05T14:58:23.096Z,4.52
2024-01-05T15:08:25.917Z,4.63
2024-01-05T15:18:30.790Z,4.73
2024-01-05T15:28:33.582Z,4.71
2024-01-05T15:38:37.672Z,4.64
2024-01-05T15:48:41.103Z,4.62
2024-01-05T15:58:47.204Z,4.64
2024-01-05T16:08:50.333Z,4.64
2024-01-05T16:18:55.416Z,4.68
2024-01-05T16:28:58.217Z,4.73
2024-01-05T16:39:02.344Z,4.71
2024-01-05T16:49:05.423Z,4.61
2024-01-05T16:59:09.669Z,4.57
2024-01-05T17:09:12.454Z,4.57
2024-01-05T17:19:16.619Z,4.43
2024-01-05T17:29:19.582Z,4.52
2024-01-05T17:39:23.684Z,4.39
2024-01-05T17:49:26.587Z,4.42
2024-01-05T17:59:30.723Z,4.37
2024-01-05T18:09:33.614Z,4.26
2024-01-05T18:19:38.008Z,4.28
2024-01-05T18:29:40.818Z,4.29
2024-01-05T18:39:45.009Z,4.23
2024-01-05T18:49:48.487Z,4.14
2024-01-05T18:59:52.718Z,4.14
2024-01-05T19:09:56.098Z,4.04
2024-01-05T19:20:00.501Z,4.13
2024-01-05T19:30:03.387Z,4.13
2024-01-05T19:40:11.644Z,4.06
2024-01-05T19:50:14.592Z,4.05
2024-01-05T20:00:19.358Z,3.91
2024-01-05T20:10:22.134Z,3.80
2024-01-05T20:20:26.251Z,3.77
2024-01-05T20:30:30.301Z,3.87
2024-01-05T20:40:34.560Z,3.67
2024-01-05T20:50:37.400Z,3.77
2024-01-05T21:00:41.671Z,3.61
2024-01-05T21:10:44.694Z,3.56
2024-01-05T21:20:49.765Z,3.49
2024-01-05T21:30:52.565Z,3.35
2024-01-05T21:40:56.684Z,3.26
2024-01-05T21:50:59.611Z,3.45
2024-01-05T22:01:03.952Z,3.47
2024-01-05T22:11:08.452Z,3.50
2024-01-05T22:21:13.343Z,3.48
2024-01-05T22:31:16.561Z,3.38
2024-01-05T22:41:23.831Z,3.21
2024-01-05T22:51:29.362Z,3.21
2024-01-05T23:01:33.805Z,3.24
2024-01-05T23:11:36.917Z,3.27
2024-01-05T23:21:41.120Z,3.30
2024-01-05T23:31:44.037Z,3.17
2024-01-05T23:41:48.184Z,3.23
2024-01-05T23:51:50.948Z,3.04
